Reklama

Seznam meteostanic a jejich METAR

Vyhledat místa podle abecedy:
A B C D E F G H I J K L M N O P Q R S T U V W X Y Z

Filtrovat:

ID stanice:
a/nebo
Název místa (fulltext):
 
Místo (ID)Naposledy načteno 
Vagar (EKVG) 08.11.2018 18:50 UTC Zobrazit METAR
EKVG 081850Z 12019KT 9999 FEW022 SCT035 08/04 Q1002
Valencia (LEVC) 15.11.2018 07:00 UTC Zobrazit METAR
LEVC 150700Z 27004KT 9000 SCT010 BKN050 15/14 Q1018 TEMPO 4000 SHRA FEW015CB
Varna (LBWN) 15.11.2018 12:00 UTC Zobrazit METAR
LBWN 151200Z 36013KT 330V030 9999 SCT023 BKN031 10/04 Q1021 NOSIG
Verona (LIPX) 15.11.2018 11:50 UTC Zobrazit METAR
LIPX 151150Z VRB01KT 9999 BKN040 14/09 Q1026
Vienna (LOWW) 15.11.2018 11:50 UTC Zobrazit METAR
LOWW 151150Z VRB02KT 9999 FEW024 10/04 Q1029 NOSIG
Vientiane (VLVT) 15.11.2018 12:00 UTC Zobrazit METAR
VLVT 151200Z 32002KT 5000 BR FEW040 28/24 Q1010 NOSIG
Vieuxfort (TLPL) 15.11.2018 12:00 UTC Zobrazit METAR
TLPL 151200Z 12012KT 9999 -SHRA SCT020 BKN038 27/25 Q1014 TEMPO SHRA
Vilnius (EYVI) 15.11.2018 11:50 UTC Zobrazit METAR
EYVI 151150Z 04006KT 360V070 9999 SCT012 BKN040 06/04 Q1032 R01/2///95 NOSIG
Vitebsk (UMII) Zatím nenačteno  
Volgograd (URWW) Zatím nenačteno  
Voronezh (UUOO) Zatím nenačteno  
Reklama

Počasí na Váš email

Emaily jsou bez reklamy a bez spamu



Odhlásit newsletter

Reklama


Lunární kalendář

  • 23.11.
  • 30.11.
  • 07.12.
  • 15.12.



Reklama


Reklama
Povinné ručení
Reklama



Reklama